sensor_id;sensor_type;location;lat;lon;timestamp;P1;durP1;ratioP1;P2;durP2;ratioP2
21424;SDS011;10873;51.132;16.848;2022-12-07T00:01:35;4.68;;;4.03;;
21424;SDS011;10873;51.132;16.848;2022-12-07T00:04:06;5.97;;;4.63;;
21424;SDS011;10873;51.132;16.848;2022-12-07T00:06:34;5.03;;;3.92;;
21424;SDS011;10873;51.132;16.848;2022-12-07T00:09:02;4.53;;;3.80;;
21424;SDS011;10873;51.132;16.848;2022-12-07T00:11:29;5.50;;;3.63;;
21424;SDS011;10873;51.132;16.848;2022-12-07T00:13:55;6.07;;;4.45;;
21424;SDS011;10873;51.132;16.848;2022-12-07T00:16:23;4.38;;;3.95;;
21424;SDS011;10873;51.132;16.848;2022-12-07T00:18:51;6.00;;;4.10;;
21424;SDS011;10873;51.132;16.848;2022-12-07T00:21:18;5.70;;;4.10;;
21424;SDS011;10873;51.132;16.848;2022-12-07T00:23:46;4.35;;;3.60;;
21424;SDS011;10873;51.132;16.848;2022-12-07T00:26:16;6.03;;;3.90;;
21424;SDS011;10873;51.132;16.848;2022-12-07T00:28:44;5.15;;;3.92;;
21424;SDS011;10873;51.132;16.848;2022-12-07T00:31:11;4.60;;;3.47;;
21424;SDS011;10873;51.132;16.848;2022-12-07T00:33:38;5.07;;;3.72;;
21424;SDS011;10873;51.132;16.848;2022-12-07T00:36:05;4.75;;;3.40;;
21424;SDS011;10873;51.132;16.848;2022-12-07T00:38:33;4.05;;;3.55;;
21424;SDS011;10873;51.132;16.848;2022-12-07T00:41:02;5.30;;;3.60;;
21424;SDS011;10873;51.132;16.848;2022-12-07T00:43:30;4.18;;;3.53;;
21424;SDS011;10873;51.132;16.848;2022-12-07T00:45:57;4.63;;;3.65;;
21424;SDS011;10873;51.132;16.848;2022-12-07T00:48:24;5.20;;;3.83;;
21424;SDS011;10873;51.132;16.848;2022-12-07T00:50:50;5.50;;;3.78;;
21424;SDS011;10873;51.132;16.848;2022-12-07T00:53:17;3.88;;;3.45;;
21424;SDS011;10873;51.132;16.848;2022-12-07T00:55:43;4.03;;;3.10;;
21424;SDS011;10873;51.132;16.848;2022-12-07T00:58:09;4.53;;;3.35;;
21424;SDS011;10873;51.132;16.848;2022-12-07T01:00:38;5.00;;;3.40;;
21424;SDS011;10873;51.132;16.848;2022-12-07T01:03:05;3.65;;;3.08;;
21424;SDS011;10873;51.132;16.848;2022-12-07T01:05:33;4.32;;;3.25;;
21424;SDS011;10873;51.132;16.848;2022-12-07T01:07:59;4.03;;;3.17;;
21424;SDS011;10873;51.132;16.848;2022-12-07T01:10:25;4.30;;;3.10;;
21424;SDS011;10873;51.132;16.848;2022-12-07T01:12:51;3.67;;;2.90;;
21424;SDS011;10873;51.132;16.848;2022-12-07T01:15:18;3.03;;;2.72;;
21424;SDS011;10873;51.132;16.848;2022-12-07T01:17:45;3.33;;;2.90;;
21424;SDS011;10873;51.132;16.848;2022-12-07T01:20:11;3.25;;;2.70;;
21424;SDS011;10873;51.132;16.848;2022-12-07T01:22:38;3.28;;;2.70;;
21424;SDS011;10873;51.132;16.848;2022-12-07T01:25:05;3.25;;;2.67;;
21424;SDS011;10873;51.132;16.848;2022-12-07T01:27:32;3.83;;;2.92;;
21424;SDS011;10873;51.132;16.848;2022-12-07T01:29:59;3.30;;;2.78;;
21424;SDS011;10873;51.132;16.848;2022-12-07T01:32:25;3.60;;;2.88;;
21424;SDS011;10873;51.132;16.848;2022-12-07T01:34:52;3.72;;;2.50;;
21424;SDS011;10873;51.132;16.848;2022-12-07T01:37:18;2.70;;;2.50;;
21424;SDS011;10873;51.132;16.848;2022-12-07T01:39:44;3.15;;;2.22;;
21424;SDS011;10873;51.132;16.848;2022-12-07T01:42:13;2.40;;;2.20;;
21424;SDS011;10873;51.132;16.848;2022-12-07T01:47:39;3.97;;;2.38;;
21424;SDS011;10873;51.132;16.848;2022-12-07T01:50:08;2.78;;;2.30;;
21424;SDS011;10873;51.132;16.848;2022-12-07T01:52:34;3.13;;;2.20;;
21424;SDS011;10873;51.132;16.848;2022-12-07T01:55:03;2.45;;;2.25;;
21424;SDS011;10873;51.132;16.848;2022-12-07T01:57:32;2.72;;;2.47;;
21424;SDS011;10873;51.132;16.848;2022-12-07T01:59:59;2.70;;;1.95;;
21424;SDS011;10873;51.132;16.848;2022-12-07T02:02:26;5.05;;;2.60;;
21424;SDS011;10873;51.132;16.848;2022-12-07T02:04:57;2.83;;;2.30;;
21424;SDS011;10873;51.132;16.848;2022-12-07T02:07:26;2.53;;;2.10;;
21424;SDS011;10873;51.132;16.848;2022-12-07T02:09:54;3.33;;;2.20;;
21424;SDS011;10873;51.132;16.848;2022-12-07T02:12:20;2.60;;;2.00;;
21424;SDS011;10873;51.132;16.848;2022-12-07T02:14:47;2.30;;;1.92;;
21424;SDS011;10873;51.132;16.848;2022-12-07T02:17:14;2.25;;;1.85;;
21424;SDS011;10873;51.132;16.848;2022-12-07T02:22:55;2.65;;;2.40;;
21424;SDS011;10873;51.132;16.848;2022-12-07T02:25:38;2.22;;;1.90;;
21424;SDS011;10873;51.132;16.848;2022-12-07T02:28:18;2.20;;;2.00;;
21424;SDS011;10873;51.132;16.848;2022-12-07T02:30:56;2.47;;;1.85;;
21424;SDS011;10873;51.132;16.848;2022-12-07T02:33:28;2.05;;;1.75;;
21424;SDS011;10873;51.132;16.848;2022-12-07T02:35:58;2.70;;;1.80;;
21424;SDS011;10873;51.132;16.848;2022-12-07T02:38:28;2.33;;;1.83;;
21424;SDS011;10873;51.132;16.848;2022-12-07T02:41:02;2.20;;;1.77;;
21424;SDS011;10873;51.132;16.848;2022-12-07T02:43:34;1.90;;;1.70;;
21424;SDS011;10873;51.132;16.848;2022-12-07T02:46:06;2.25;;;1.85;;
21424;SDS011;10873;51.132;16.848;2022-12-07T02:48:34;2.47;;;1.80;;
21424;SDS011;10873;51.132;16.848;2022-12-07T02:51:04;2.30;;;1.85;;
21424;SDS011;10873;51.132;16.848;2022-12-07T02:53:31;2.15;;;1.73;;
21424;SDS011;10873;51.132;16.848;2022-12-07T02:55:58;2.20;;;1.58;;
21424;SDS011;10873;51.132;16.848;2022-12-07T02:58:30;1.58;;;1.30;;
21424;SDS011;10873;51.132;16.848;2022-12-07T03:01:11;1.60;;;1.50;;
21424;SDS011;10873;51.132;16.848;2022-12-07T03:03:46;1.90;;;1.70;;
21424;SDS011;10873;51.132;16.848;2022-12-07T03:06:20;1.65;;;1.52;;
21424;SDS011;10873;51.132;16.848;2022-12-07T03:08:52;1.77;;;1.52;;
21424;SDS011;10873;51.132;16.848;2022-12-07T03:11:25;1.70;;;1.60;;
21424;SDS011;10873;51.132;16.848;2022-12-07T03:13:58;1.55;;;1.45;;
21424;SDS011;10873;51.132;16.848;2022-12-07T03:16:31;1.73;;;1.52;;
21424;SDS011;10873;51.132;16.848;2022-12-07T03:19:01;1.90;;;1.70;;
21424;SDS011;10873;51.132;16.848;2022-12-07T03:21:31;1.40;;;1.30;;
21424;SDS011;10873;51.132;16.848;2022-12-07T03:24:02;2.17;;;1.50;;
21424;SDS011;10873;51.132;16.848;2022-12-07T03:26:34;1.88;;;1.42;;
21424;SDS011;10873;51.132;16.848;2022-12-07T03:29:04;1.38;;;1.27;;
21424;SDS011;10873;51.132;16.848;2022-12-07T03:31:34;1.50;;;1.35;;
21424;SDS011;10873;51.132;16.848;2022-12-07T03:34:05;2.47;;;1.27;;
21424;SDS011;10873;51.132;16.848;2022-12-07T03:36:38;1.20;;;1.10;;
21424;SDS011;10873;51.132;16.848;2022-12-07T03:39:11;1.40;;;1.30;;
21424;SDS011;10873;51.132;16.848;2022-12-07T03:41:44;1.67;;;1.30;;
21424;SDS011;10873;51.132;16.848;2022-12-07T03:44:11;1.40;;;1.25;;
21424;SDS011;10873;51.132;16.848;2022-12-07T03:46:42;1.77;;;1.30;;
21424;SDS011;10873;51.132;16.848;2022-12-07T03:49:13;1.40;;;1.23;;
21424;SDS011;10873;51.132;16.848;2022-12-07T03:51:46;1.75;;;1.50;;
21424;SDS011;10873;51.132;16.848;2022-12-07T03:54:19;1.75;;;1.38;;
21424;SDS011;10873;51.132;16.848;2022-12-07T03:56:49;1.95;;;1.33;;
21424;SDS011;10873;51.132;16.848;2022-12-07T03:59:17;1.83;;;1.40;;
21424;SDS011;10873;51.132;16.848;2022-12-07T04:01:45;1.65;;;1.30;;
21424;SDS011;10873;51.132;16.848;2022-12-07T04:04:17;1.45;;;1.35;;
21424;SDS011;10873;51.132;16.848;2022-12-07T04:06:43;1.48;;;1.20;;
21424;SDS011;10873;51.132;16.848;2022-12-07T04:09:09;1.48;;;1.27;;
21424;SDS011;10873;51.132;16.848;2022-12-07T04:11:35;2.03;;;1.42;;
21424;SDS011;10873;51.132;16.848;2022-12-07T04:14:01;1.83;;;1.40;;
21424;SDS011;10873;51.132;16.848;2022-12-07T04:16:47;1.58;;;1.30;;
21424;SDS011;10873;51.132;16.848;2022-12-07T04:19:15;1.55;;;1.33;;
21424;SDS011;10873;51.132;16.848;2022-12-07T04:21:42;1.27;;;1.13;;
21424;SDS011;10873;51.132;16.848;2022-12-07T04:24:08;1.23;;;1.10;;
21424;SDS011;10873;51.132;16.848;2022-12-07T04:26:34;1.55;;;1.20;;
21424;SDS011;10873;51.132;16.848;2022-12-07T04:29:00;2.05;;;1.30;;
21424;SDS011;10873;51.132;16.848;2022-12-07T04:47:33;1.25;;;1.10;;
21424;SDS011;10873;51.132;16.848;2022-12-07T04:49:59;1.13;;;1.02;;
21424;SDS011;10873;51.132;16.848;2022-12-07T04:52:25;1.25;;;1.15;;
21424;SDS011;10873;51.132;16.848;2022-12-07T04:54:51;1.10;;;1.00;;
21424;SDS011;10873;51.132;16.848;2022-12-07T04:57:17;1.05;;;0.93;;
21424;SDS011;10873;51.132;16.848;2022-12-07T04:59:43;1.08;;;0.98;;
21424;SDS011;10873;51.132;16.848;2022-12-07T05:02:09;2.28;;;1.20;;
21424;SDS011;10873;51.132;16.848;2022-12-07T05:04:37;1.17;;;1.08;;
21424;SDS011;10873;51.132;16.848;2022-12-07T05:07:02;1.38;;;1.00;;
21424;SDS011;10873;51.132;16.848;2022-12-07T05:09:29;1.80;;;1.20;;
21424;SDS011;10873;51.132;16.848;2022-12-07T05:11:54;0.93;;;0.90;;
21424;SDS011;10873;51.132;16.848;2022-12-07T05:14:21;0.85;;;0.85;;
21424;SDS011;10873;51.132;16.848;2022-12-07T05:16:47;1.10;;;1.00;;
21424;SDS011;10873;51.132;16.848;2022-12-07T05:19:15;1.52;;;1.15;;
21424;SDS011;10873;51.132;16.848;2022-12-07T05:21:43;1.38;;;1.10;;
21424;SDS011;10873;51.132;16.848;2022-12-07T05:24:09;1.00;;;1.00;;
21424;SDS011;10873;51.132;16.848;2022-12-07T05:26:36;1.10;;;1.02;;
21424;SDS011;10873;51.132;16.848;2022-12-07T05:29:03;1.05;;;0.95;;
21424;SDS011;10873;51.132;16.848;2022-12-07T05:31:29;1.00;;;1.00;;
21424;SDS011;10873;51.132;16.848;2022-12-07T05:33:55;1.20;;;1.10;;
21424;SDS011;10873;51.132;16.848;2022-12-07T05:36:21;1.05;;;1.05;;
21424;SDS011;10873;51.132;16.848;2022-12-07T05:38:49;1.58;;;1.20;;
21424;SDS011;10873;51.132;16.848;2022-12-07T05:41:15;1.50;;;1.40;;
21424;SDS011;10873;51.132;16.848;2022-12-07T05:44:02;1.48;;;1.38;;
21424;SDS011;10873;51.132;16.848;2022-12-07T05:46:28;1.77;;;1.50;;
21424;SDS011;10873;51.132;16.848;2022-12-07T05:48:55;1.45;;;1.33;;
21424;SDS011;10873;51.132;16.848;2022-12-07T05:51:20;1.30;;;1.20;;
21424;SDS011;10873;51.132;16.848;2022-12-07T05:53:48;2.05;;;1.65;;
21424;SDS011;10873;51.132;16.848;2022-12-07T05:56:14;2.10;;;1.52;;
21424;SDS011;10873;51.132;16.848;2022-12-07T05:58:40;2.72;;;1.38;;
21424;SDS011;10873;51.132;16.848;2022-12-07T06:01:25;1.95;;;1.58;;
21424;SDS011;10873;51.132;16.848;2022-12-07T06:03:51;1.50;;;1.40;;
21424;SDS011;10873;51.132;16.848;2022-12-07T06:06:17;1.58;;;1.42;;
21424;SDS011;10873;51.132;16.848;2022-12-07T06:08:43;1.70;;;1.60;;
21424;SDS011;10873;51.132;16.848;2022-12-07T06:11:10;2.38;;;1.70;;
21424;SDS011;10873;51.132;16.848;2022-12-07T06:13:55;2.05;;;1.77;;
21424;SDS011;10873;51.132;16.848;2022-12-07T06:16:21;1.88;;;1.73;;
21424;SDS011;10873;51.132;16.848;2022-12-07T06:18:47;2.35;;;1.60;;
21424;SDS011;10873;51.132;16.848;2022-12-07T06:21:13;2.17;;;1.98;;
21424;SDS011;10873;51.132;16.848;2022-12-07T06:23:39;2.47;;;2.00;;
21424;SDS011;10873;51.132;16.848;2022-12-07T06:26:05;6.88;;;2.35;;
21424;SDS011;10873;51.132;16.848;2022-12-07T06:28:33;3.30;;;2.00;;
21424;SDS011;10873;51.132;16.848;2022-12-07T06:30:59;2.28;;;1.60;;
21424;SDS011;10873;51.132;16.848;2022-12-07T06:33:26;2.90;;;2.10;;
21424;SDS011;10873;51.132;16.848;2022-12-07T06:35:52;2.65;;;2.00;;
21424;SDS011;10873;51.132;16.848;2022-12-07T06:38:18;2.50;;;2.10;;
21424;SDS011;10873;51.132;16.848;2022-12-07T06:40:44;2.30;;;2.10;;
21424;SDS011;10873;51.132;16.848;2022-12-07T06:43:10;3.45;;;2.25;;
21424;SDS011;10873;51.132;16.848;2022-12-07T06:45:37;2.72;;;1.88;;
21424;SDS011;10873;51.132;16.848;2022-12-07T06:48:03;2.53;;;2.08;;
21424;SDS011;10873;51.132;16.848;2022-12-07T06:50:29;2.78;;;2.17;;
21424;SDS011;10873;51.132;16.848;2022-12-07T06:52:55;2.20;;;2.00;;
21424;SDS011;10873;51.132;16.848;2022-12-07T06:55:21;2.38;;;1.88;;
21424;SDS011;10873;51.132;16.848;2022-12-07T06:57:47;2.38;;;2.15;;
21424;SDS011;10873;51.132;16.848;2022-12-07T07:00:14;2.78;;;2.13;;
21424;SDS011;10873;51.132;16.848;2022-12-07T07:02:42;2.20;;;1.90;;
21424;SDS011;10873;51.132;16.848;2022-12-07T07:05:08;2.10;;;1.90;;
21424;SDS011;10873;51.132;16.848;2022-12-07T07:07:34;2.25;;;2.03;;
21424;SDS011;10873;51.132;16.848;2022-12-07T07:10:00;2.47;;;2.10;;
21424;SDS011;10873;51.132;16.848;2022-12-07T07:12:26;2.30;;;2.08;;
21424;SDS011;10873;51.132;16.848;2022-12-07T07:14:52;2.58;;;2.30;;
21424;SDS011;10873;51.132;16.848;2022-12-07T07:17:18;2.05;;;1.85;;
21424;SDS011;10873;51.132;16.848;2022-12-07T07:19:45;2.28;;;1.98;;
21424;SDS011;10873;51.132;16.848;2022-12-07T07:22:11;2.65;;;2.10;;
21424;SDS011;10873;51.132;16.848;2022-12-07T07:24:37;2.30;;;1.95;;
21424;SDS011;10873;51.132;16.848;2022-12-07T07:27:03;2.28;;;2.08;;
21424;SDS011;10873;51.132;16.848;2022-12-07T07:29:29;3.38;;;2.10;;
21424;SDS011;10873;51.132;16.848;2022-12-07T07:31:55;2.30;;;2.10;;
21424;SDS011;10873;51.132;16.848;2022-12-07T07:34:21;1.80;;;1.70;;
21424;SDS011;10873;51.132;16.848;2022-12-07T07:36:48;3.55;;;1.95;;
21424;SDS011;10873;51.132;16.848;2022-12-07T07:39:14;2.33;;;2.13;;
21424;SDS011;10873;51.132;16.848;2022-12-07T07:41:40;2.20;;;2.00;;
21424;SDS011;10873;51.132;16.848;2022-12-07T07:44:06;2.25;;;2.03;;
21424;SDS011;10873;51.132;16.848;2022-12-07T07:46:32;2.00;;;1.85;;
21424;SDS011;10873;51.132;16.848;2022-12-07T07:48:58;2.85;;;2.00;;
21424;SDS011;10873;51.132;16.848;2022-12-07T07:51:24;2.10;;;1.90;;
21424;SDS011;10873;51.132;16.848;2022-12-07T07:53:51;2.40;;;2.20;;
21424;SDS011;10873;51.132;16.848;2022-12-07T07:56:18;2.33;;;2.00;;
21424;SDS011;10873;51.132;16.848;2022-12-07T07:58:43;2.63;;;2.20;;
21424;SDS011;10873;51.132;16.848;2022-12-07T08:01:10;2.60;;;2.30;;
21424;SDS011;10873;51.132;16.848;2022-12-07T08:03:35;2.50;;;2.22;;
21424;SDS011;10873;51.132;16.848;2022-12-07T08:06:02;2.38;;;2.17;;
21424;SDS011;10873;51.132;16.848;2022-12-07T08:08:28;2.53;;;1.90;;
21424;SDS011;10873;51.132;16.848;2022-12-07T08:10:56;4.70;;;2.40;;
21424;SDS011;10873;51.132;16.848;2022-12-07T08:13:25;3.17;;;2.58;;
21424;SDS011;10873;51.132;16.848;2022-12-07T08:15:51;4.18;;;2.10;;
21424;SDS011;10873;51.132;16.848;2022-12-07T08:18:17;17.50;;;2.55;;
21424;SDS011;10873;51.132;16.848;2022-12-07T08:20:44;35.40;;;3.50;;
21424;SDS011;10873;51.132;16.848;2022-12-07T08:23:10;24.75;;;3.47;;
21424;SDS011;10873;51.132;16.848;2022-12-07T08:25:36;24.48;;;2.90;;
21424;SDS011;10873;51.132;16.848;2022-12-07T08:28:04;34.85;;;3.35;;
21424;SDS011;10873;51.132;16.848;2022-12-07T08:30:31;15.18;;;3.10;;
21424;SDS011;10873;51.132;16.848;2022-12-07T08:32:57;21.80;;;3.65;;
21424;SDS011;10873;51.132;16.848;2022-12-07T08:35:24;9.20;;;2.72;;
21424;SDS011;10873;51.132;16.848;2022-12-07T08:37:50;13.85;;;2.65;;
21424;SDS011;10873;51.132;16.848;2022-12-07T08:40:16;15.90;;;2.72;;
21424;SDS011;10873;51.132;16.848;2022-12-07T08:42:44;8.63;;;2.92;;
21424;SDS011;10873;51.132;16.848;2022-12-07T08:45:15;9.15;;;2.33;;
21424;SDS011;10873;51.132;16.848;2022-12-07T08:47:43;10.52;;;2.55;;
21424;SDS011;10873;51.132;16.848;2022-12-07T08:50:11;11.43;;;2.25;;
21424;SDS011;10873;51.132;16.848;2022-12-07T08:52:38;7.40;;;2.50;;
21424;SDS011;10873;51.132;16.848;2022-12-07T08:55:06;5.80;;;2.20;;
21424;SDS011;10873;51.132;16.848;2022-12-07T08:57:35;5.32;;;2.20;;
21424;SDS011;10873;51.132;16.848;2022-12-07T09:00:02;8.82;;;2.28;;
21424;SDS011;10873;51.132;16.848;2022-12-07T09:02:31;4.60;;;2.15;;
21424;SDS011;10873;51.132;16.848;2022-12-07T09:04:57;6.80;;;2.30;;
21424;SDS011;10873;51.132;16.848;2022-12-07T09:07:23;4.07;;;2.00;;
21424;SDS011;10873;51.132;16.848;2022-12-07T09:09:50;3.00;;;2.10;;
21424;SDS011;10873;51.132;16.848;2022-12-07T09:12:16;3.55;;;2.10;;
21424;SDS011;10873;51.132;16.848;2022-12-07T09:14:42;3.63;;;2.22;;
21424;SDS011;10873;51.132;16.848;2022-12-07T09:17:09;4.50;;;2.40;;
21424;SDS011;10873;51.132;16.848;2022-12-07T09:19:39;4.95;;;2.47;;
21424;SDS011;10873;51.132;16.848;2022-12-07T09:22:06;5.82;;;3.00;;
21424;SDS011;10873;51.132;16.848;2022-12-07T09:24:33;4.32;;;2.42;;
21424;SDS011;10873;51.132;16.848;2022-12-07T09:26:58;5.93;;;2.80;;
21424;SDS011;10873;51.132;16.848;2022-12-07T09:29:25;2.90;;;2.53;;
21424;SDS011;10873;51.132;16.848;2022-12-07T09:31:50;3.65;;;2.80;;
21424;SDS011;10873;51.132;16.848;2022-12-07T09:34:17;4.75;;;2.60;;
21424;SDS011;10873;51.132;16.848;2022-12-07T09:36:45;3.47;;;2.60;;
21424;SDS011;10873;51.132;16.848;2022-12-07T09:39:11;4.22;;;2.60;;
21424;SDS011;10873;51.132;16.848;2022-12-07T09:41:37;3.42;;;2.45;;
21424;SDS011;10873;51.132;16.848;2022-12-07T09:44:06;2.83;;;2.50;;
21424;SDS011;10873;51.132;16.848;2022-12-07T09:46:35;6.72;;;2.80;;
21424;SDS011;10873;51.132;16.848;2022-12-07T09:49:04;4.00;;;3.10;;
21424;SDS011;10873;51.132;16.848;2022-12-07T09:51:30;4.47;;;3.28;;
21424;SDS011;10873;51.132;16.848;2022-12-07T09:53:58;5.38;;;4.22;;
21424;SDS011;10873;51.132;16.848;2022-12-07T09:56:25;6.05;;;4.40;;
21424;SDS011;10873;51.132;16.848;2022-12-07T09:58:58;5.80;;;4.40;;
21424;SDS011;10873;51.132;16.848;2022-12-07T10:01:27;5.03;;;4.03;;
21424;SDS011;10873;51.132;16.848;2022-12-07T10:03:58;6.65;;;3.88;;
21424;SDS011;10873;51.132;16.848;2022-12-07T10:06:30;5.05;;;3.80;;
21424;SDS011;10873;51.132;16.848;2022-12-07T10:08:56;3.58;;;3.03;;
21424;SDS011;10873;51.132;16.848;2022-12-07T10:11:23;3.60;;;3.00;;
21424;SDS011;10873;51.132;16.848;2022-12-07T10:13:51;3.83;;;2.92;;
21424;SDS011;10873;51.132;16.848;2022-12-07T10:19:19;3.78;;;2.65;;
21424;SDS011;10873;51.132;16.848;2022-12-07T10:21:59;4.38;;;2.70;;
21424;SDS011;10873;51.132;16.848;2022-12-07T10:24:28;5.15;;;2.60;;
21424;SDS011;10873;51.132;16.848;2022-12-07T10:26:54;6.28;;;2.78;;
21424;SDS011;10873;51.132;16.848;2022-12-07T10:29:22;4.82;;;2.65;;
21424;SDS011;10873;51.132;16.848;2022-12-07T10:31:51;3.10;;;2.08;;
21424;SDS011;10873;51.132;16.848;2022-12-07T10:34:21;3.75;;;2.20;;
21424;SDS011;10873;51.132;16.848;2022-12-07T10:36:52;2.65;;;1.92;;
21424;SDS011;10873;51.132;16.848;2022-12-07T10:39:19;4.15;;;2.20;;
21424;SDS011;10873;51.132;16.848;2022-12-07T10:41:55;4.15;;;2.03;;
21424;SDS011;10873;51.132;16.848;2022-12-07T10:44:23;5.65;;;1.85;;
21424;SDS011;10873;51.132;16.848;2022-12-07T10:46:57;4.93;;;1.70;;
21424;SDS011;10873;51.132;16.848;2022-12-07T10:52:32;4.60;;;2.00;;
21424;SDS011;10873;51.132;16.848;2022-12-07T10:55:14;5.82;;;1.60;;
21424;SDS011;10873;51.132;16.848;2022-12-07T10:57:54;5.22;;;1.65;;
21424;SDS011;10873;51.132;16.848;2022-12-07T11:00:28;3.58;;;1.50;;
21424;SDS011;10873;51.132;16.848;2022-12-07T11:03:22;4.80;;;1.45;;
21424;SDS011;10873;51.132;16.848;2022-12-07T11:06:02;3.63;;;1.70;;
21424;SDS011;10873;51.132;16.848;2022-12-07T11:08:39;3.38;;;1.38;;
21424;SDS011;10873;51.132;16.848;2022-12-07T11:11:14;3.25;;;1.42;;
21424;SDS011;10873;51.132;16.848;2022-12-07T11:13:48;4.95;;;1.70;;
21424;SDS011;10873;51.132;16.848;2022-12-07T11:16:27;3.40;;;2.10;;
21424;SDS011;10873;51.132;16.848;2022-12-07T11:19:06;4.85;;;1.90;;
21424;SDS011;10873;51.132;16.848;2022-12-07T11:21:48;4.00;;;2.20;;
21424;SDS011;10873;51.132;16.848;2022-12-07T11:24:23;5.80;;;2.42;;
21424;SDS011;10873;51.132;16.848;2022-12-07T11:27:00;4.38;;;2.10;;
21424;SDS011;10873;51.132;16.848;2022-12-07T11:29:39;3.53;;;2.10;;
21424;SDS011;10873;51.132;16.848;2022-12-07T11:32:17;6.60;;;2.40;;
21424;SDS011;10873;51.132;16.848;2022-12-07T11:34:49;4.45;;;2.20;;
21424;SDS011;10873;51.132;16.848;2022-12-07T11:37:28;3.78;;;2.20;;
21424;SDS011;10873;51.132;16.848;2022-12-07T11:39:59;5.50;;;2.05;;
21424;SDS011;10873;51.132;16.848;2022-12-07T11:42:29;2.38;;;1.58;;
21424;SDS011;10873;51.132;16.848;2022-12-07T11:45:00;3.17;;;1.92;;
21424;SDS011;10873;51.132;16.848;2022-12-07T11:47:30;6.15;;;2.53;;
21424;SDS011;10873;51.132;16.848;2022-12-07T11:50:05;6.97;;;3.65;;
21424;SDS011;10873;51.132;16.848;2022-12-07T11:52:42;5.47;;;3.90;;
21424;SDS011;10873;51.132;16.848;2022-12-07T11:55:16;7.10;;;3.50;;
21424;SDS011;10873;51.132;16.848;2022-12-07T11:57:48;4.50;;;2.92;;
21424;SDS011;10873;51.132;16.848;2022-12-07T12:00:20;3.45;;;2.40;;
21424;SDS011;10873;51.132;16.848;2022-12-07T12:02:48;3.63;;;2.20;;
21424;SDS011;10873;51.132;16.848;2022-12-07T12:05:20;4.50;;;1.95;;
21424;SDS011;10873;51.132;16.848;2022-12-07T12:07:48;4.13;;;1.83;;
21424;SDS011;10873;51.132;16.848;2022-12-07T12:10:21;3.85;;;1.70;;
21424;SDS011;10873;51.132;16.848;2022-12-07T12:13:02;5.43;;;1.95;;
21424;SDS011;10873;51.132;16.848;2022-12-07T12:15:46;1.90;;;1.42;;
21424;SDS011;10873;51.132;16.848;2022-12-07T12:18:29;2.45;;;1.45;;
21424;SDS011;10873;51.132;16.848;2022-12-07T12:21:13;2.17;;;1.40;;
21424;SDS011;10873;51.132;16.848;2022-12-07T12:23:43;1.83;;;1.30;;
21424;SDS011;10873;51.132;16.848;2022-12-07T12:26:14;1.67;;;1.30;;
21424;SDS011;10873;51.132;16.848;2022-12-07T12:28:49;2.05;;;1.10;;
21424;SDS011;10873;51.132;16.848;2022-12-07T12:31:31;2.75;;;1.85;;
21424;SDS011;10873;51.132;16.848;2022-12-07T12:34:03;1.80;;;1.23;;
21424;SDS011;10873;51.132;16.848;2022-12-07T12:36:43;2.05;;;1.40;;
21424;SDS011;10873;51.132;16.848;2022-12-07T12:39:11;3.97;;;1.80;;
21424;SDS011;10873;51.132;16.848;2022-12-07T12:41:55;5.20;;;2.03;;
21424;SDS011;10873;51.132;16.848;2022-12-07T12:47:41;13.10;;;4.32;;
21424;SDS011;10873;51.132;16.848;2022-12-07T12:50:21;14.60;;;4.55;;
21424;SDS011;10873;51.132;16.848;2022-12-07T12:52:50;14.25;;;4.75;;
21424;SDS011;10873;51.132;16.848;2022-12-07T12:55:43;15.80;;;4.68;;
21424;SDS011;10873;51.132;16.848;2022-12-07T12:58:30;15.82;;;5.75;;
21424;SDS011;10873;51.132;16.848;2022-12-07T13:04:13;28.90;;;6.43;;
21424;SDS011;10873;51.132;16.848;2022-12-07T13:06:54;22.42;;;6.80;;
21424;SDS011;10873;51.132;16.848;2022-12-07T13:09:21;21.40;;;6.18;;
21424;SDS011;10873;51.132;16.848;2022-12-07T13:11:50;16.48;;;5.80;;
21424;SDS011;10873;51.132;16.848;2022-12-07T13:14:40;18.08;;;5.25;;
21424;SDS011;10873;51.132;16.848;2022-12-07T13:23:27;9.75;;;3.70;;
21424;SDS011;10873;51.132;16.848;2022-12-07T13:26:12;13.50;;;4.35;;
21424;SDS011;10873;51.132;16.848;2022-12-07T13:28:41;11.02;;;4.00;;
21424;SDS011;10873;51.132;16.848;2022-12-07T13:31:11;8.32;;;3.83;;
21424;SDS011;10873;51.132;16.848;2022-12-07T13:33:42;10.50;;;3.60;;
21424;SDS011;10873;51.132;16.848;2022-12-07T13:36:11;9.68;;;3.63;;
21424;SDS011;10873;51.132;16.848;2022-12-07T13:38:49;8.85;;;3.58;;
21424;SDS011;10873;51.132;16.848;2022-12-07T13:41:18;11.70;;;4.18;;
21424;SDS011;10873;51.132;16.848;2022-12-07T13:43:48;17.27;;;3.45;;
21424;SDS011;10873;51.132;16.848;2022-12-07T13:46:16;8.50;;;3.42;;
21424;SDS011;10873;51.132;16.848;2022-12-07T13:48:45;12.63;;;3.88;;
21424;SDS011;10873;51.132;16.848;2022-12-07T13:51:20;7.18;;;3.30;;
21424;SDS011;10873;51.132;16.848;2022-12-07T13:53:50;9.32;;;3.63;;
21424;SDS011;10873;51.132;16.848;2022-12-07T13:56:18;6.00;;;3.20;;
21424;SDS011;10873;51.132;16.848;2022-12-07T13:58:46;9.75;;;3.70;;
21424;SDS011;10873;51.132;16.848;2022-12-07T14:01:12;9.27;;;3.10;;
21424;SDS011;10873;51.132;16.848;2022-12-07T14:03:39;10.02;;;3.03;;
21424;SDS011;10873;51.132;16.848;2022-12-07T14:06:15;9.48;;;3.25;;
21424;SDS011;10873;51.132;16.848;2022-12-07T14:08:45;8.90;;;3.63;;
21424;SDS011;10873;51.132;16.848;2022-12-07T14:11:14;7.28;;;3.40;;
21424;SDS011;10873;51.132;16.848;2022-12-07T14:13:51;9.50;;;2.90;;
21424;SDS011;10873;51.132;16.848;2022-12-07T14:16:27;8.73;;;3.08;;
21424;SDS011;10873;51.132;16.848;2022-12-07T14:18:54;9.57;;;3.70;;
21424;SDS011;10873;51.132;16.848;2022-12-07T14:21:22;8.50;;;3.05;;
21424;SDS011;10873;51.132;16.848;2022-12-07T14:24:09;5.97;;;2.67;;
21424;SDS011;10873;51.132;16.848;2022-12-07T14:26:47;12.90;;;3.03;;
21424;SDS011;10873;51.132;16.848;2022-12-07T14:29:18;6.82;;;2.75;;
21424;SDS011;10873;51.132;16.848;2022-12-07T14:31:45;6.95;;;2.50;;
21424;SDS011;10873;51.132;16.848;2022-12-07T14:34:12;6.13;;;2.85;;
21424;SDS011;10873;51.132;16.848;2022-12-07T14:36:38;10.50;;;2.97;;
21424;SDS011;10873;51.132;16.848;2022-12-07T14:39:04;10.48;;;2.70;;
21424;SDS011;10873;51.132;16.848;2022-12-07T14:41:30;8.02;;;2.78;;
21424;SDS011;10873;51.132;16.848;2022-12-07T14:44:16;4.03;;;2.53;;
21424;SDS011;10873;51.132;16.848;2022-12-07T14:46:43;6.97;;;3.05;;
21424;SDS011;10873;51.132;16.848;2022-12-07T14:49:10;6.38;;;2.47;;
21424;SDS011;10873;51.132;16.848;2022-12-07T14:51:37;5.32;;;2.28;;
21424;SDS011;10873;51.132;16.848;2022-12-07T14:54:05;5.57;;;2.15;;
21424;SDS011;10873;51.132;16.848;2022-12-07T14:56:34;7.07;;;2.03;;
21424;SDS011;10873;51.132;16.848;2022-12-07T14:59:00;7.97;;;2.40;;
21424;SDS011;10873;51.132;16.848;2022-12-07T15:01:28;5.45;;;2.20;;
21424;SDS011;10873;51.132;16.848;2022-12-07T15:03:54;7.97;;;2.13;;
21424;SDS011;10873;51.132;16.848;2022-12-07T15:06:20;3.42;;;2.10;;
21424;SDS011;10873;51.132;16.848;2022-12-07T15:08:46;4.28;;;2.28;;
21424;SDS011;10873;51.132;16.848;2022-12-07T15:11:12;5.22;;;2.15;;
21424;SDS011;10873;51.132;16.848;2022-12-07T15:13:39;4.43;;;2.00;;
21424;SDS011;10873;51.132;16.848;2022-12-07T15:16:23;3.30;;;1.98;;
21424;SDS011;10873;51.132;16.848;2022-12-07T15:18:51;11.00;;;2.47;;
21424;SDS011;10873;51.132;16.848;2022-12-07T15:21:17;3.25;;;1.80;;
21424;SDS011;10873;51.132;16.848;2022-12-07T15:23:43;3.05;;;1.90;;
21424;SDS011;10873;51.132;16.848;2022-12-07T15:26:11;6.68;;;2.20;;
21424;SDS011;10873;51.132;16.848;2022-12-07T15:28:37;4.90;;;2.10;;